Time;durP1;ratioP1;P1;durP2;ratioP2;P2;SDS_P1;SDS_P2;PMS_P1;PMS_P2;Temp;Humidity;BMP_temperature;BMP_pressure;BME280_temperature;BME280_humidity;BME280_pressure;Samples;Min_cycle;Max_cycle;Signal;HPM_P1;HPM_P2
2023/05/04 00:01:31;;;;;;;;;;;;;;;21.39;31.36;98448.19;5075641;28;914;-73
2023/05/04 00:03:56;;;;;;;;;;;;;;;21.35;31.32;98435.34;5075353;28;944;-74
2023/05/04 00:06:22;;;;;;;;;;;;;;;21.54;30.91;98429.72;5075304;28;970;-73
2023/05/04 00:08:47;;;;;;;;;;;;;;;21.37;31.23;98424.41;5076240;28;957;-73
2023/05/04 00:11:13;;;;;;;;;;;;;;;21.11;31.70;98429.69;5075194;28;1293;-73
2023/05/04 00:13:38;;;;;;;;;;;;;;;21.71;31.24;98416.44;5074898;28;1906;-73
2023/05/04 00:16:04;;;;;;;;;;;;;;;22.21;30.44;98401.22;5075899;28;914;-72
2023/05/04 00:18:29;;;;;;;;;;;;;;;22.31;30.15;98437.03;5075580;28;1223;-73
2023/05/04 00:20:55;;;;;;;;;;;;;;;21.95;30.42;98405.81;5076634;28;906;-73
2023/05/04 00:23:20;;;;;;;;;;;;;;;21.74;30.59;98380.78;5058321;28;1241;-73
2023/05/04 00:25:46;;;;;;;;;;;;;;;21.64;30.78;98388.25;5074898;28;865;-73
2023/05/04 00:28:11;;;;;;;;;;;;;;;21.64;30.80;98388.25;5058164;28;1213;-73
2023/05/04 00:30:37;;;;;;;;;;;;;;;21.58;30.94;98358.84;5058664;28;1165;-74
2023/05/04 00:33:03;;;;;;;;;;;;;;;21.56;31.16;98333.03;5057354;28;1989;-73
2023/05/04 00:35:30;;;;;;;;;;;;;;;21.43;31.33;98349.06;5075941;28;921;-73
2023/05/04 00:37:56;;;;;;;;;;;;;;;21.57;30.98;98402.56;5058429;28;1202;-73
2023/05/04 00:40:21;;;;;;;;;;;;;;;21.39;31.49;98391.59;5074900;28;1084;-73
2023/05/04 00:42:47;;;;;;;;;;;;;;;21.69;31.03;98387.75;5076376;28;872;-73
2023/05/04 00:45:13;;;;;;;;;;;;;;;21.44;31.42;98379.75;5076756;28;881;-73
2023/05/04 00:47:38;;;;;;;;;;;;;;;21.65;31.15;98384.19;5081274;28;1415;-73
2023/05/04 00:50:05;;;;;;;;;;;;;;;22.05;30.72;98396.28;5081264;28;1299;-73
2023/05/04 00:52:30;;;;;;;;;;;;;;;22.16;30.81;98387.56;5081208;28;1910;-73
2023/05/04 00:54:56;;;;;;;;;;;;;;;22.00;30.48;98381.84;5064566;28;1090;-73
2023/05/04 00:57:22;;;;;;;;;;;;;;;21.69;30.97;98376.41;5080936;28;903;-73
2023/05/04 00:59:47;;;;;;;;;;;;;;;21.71;30.86;98368.31;5080925;28;1142;-73
2023/05/04 01:02:13;;;;;;;;;;;;;;;21.74;30.63;98364.59;5098053;28;1280;-74
2023/05/04 01:04:38;;;;;;;;;;;;;;;21.78;30.39;98361.69;5080879;28;930;-73
2023/05/04 01:07:13;;;;;;;;;;;;;;;21.57;30.95;98360.09;5064419;28;1186;-73
2023/05/04 01:09:46;;;;;;;;;;;;;;;21.63;30.72;98361.19;5097593;28;1045;-73
2023/05/04 01:12:15;;;;;;;;;;;;;;;21.38;31.10;98358.06;5081002;28;1980;-73
2023/05/04 01:14:40;;;;;;;;;;;;;;;21.58;30.97;98361.69;5117873;28;1154;-73
2023/05/04 01:17:06;;;;;;;;;;;;;;;21.54;30.55;98356.09;5084055;28;914;-73
2023/05/04 01:19:32;;;;;;;;;;;;;;;22.01;30.71;98347.38;5117961;28;917;-73
2023/05/04 01:21:57;;;;;;;;;;;;;;;22.36;30.12;98340.13;5067378;28;1257;-73
2023/05/04 01:24:23;;;;;;;;;;;;;;;22.59;29.71;98327.81;5113405;28;986;-74
2023/05/04 01:26:50;;;;;;;;;;;;;;;21.83;30.57;98327.97;5080303;28;912;-73
2023/05/04 01:29:16;;;;;;;;;;;;;;;21.82;30.76;98339.75;5076782;28;982;-73
2023/05/04 01:31:41;;;;;;;;;;;;;;;21.73;30.50;98350.88;5041787;28;928;-74
2023/05/04 01:34:07;;;;;;;;;;;;;;;21.30;31.16;98363.09;5036621;28;1906;-74
2023/05/04 01:36:32;;;;;;;;;;;;;;;21.51;31.01;98370.34;5020625;28;1277;-73
2023/05/04 01:38:58;;;;;;;;;;;;;;;21.46;31.04;98376.50;5020807;28;1269;-73
2023/05/04 01:41:25;;;;;;;;;;;;;;;21.42;31.10;98378.63;5020400;28;1013;-73
2023/05/04 01:43:50;;;;;;;;;;;;;;;21.53;31.10;98382.03;5017460;28;1163;-73
2023/05/04 01:46:16;;;;;;;;;;;;;;;21.74;30.59;98378.75;5063766;28;869;-73
2023/05/04 01:48:41;;;;;;;;;;;;;;;21.60;30.88;98376.19;5073203;28;971;-73
2023/05/04 01:51:07;;;;;;;;;;;;;;;21.24;31.66;98399.56;5056688;28;1105;-73
2023/05/04 01:53:32;;;;;;;;;;;;;;;21.54;30.76;98392.09;5073461;28;1918;-73
2023/05/04 01:55:58;;;;;;;;;;;;;;;21.25;31.15;98378.50;5056613;28;1178;-73
2023/05/04 01:58:23;;;;;;;;;;;;;;;21.45;31.18;98363.56;5032688;28;1248;-76
2023/05/04 02:00:49;;;;;;;;;;;;;;;21.84;31.12;98352.22;5036701;28;1217;-73
2023/05/04 02:03:14;;;;;;;;;;;;;;;22.30;30.17;98349.59;5052969;28;1264;-73
2023/05/04 02:05:40;;;;;;;;;;;;;;;21.79;30.77;98349.91;5036257;28;934;-74
2023/05/04 02:08:06;;;;;;;;;;;;;;;21.76;30.54;98339.47;5052985;28;1207;-73
2023/05/04 02:10:32;;;;;;;;;;;;;;;21.27;31.23;98339.22;5036278;28;1138;-73
2023/05/04 02:12:57;;;;;;;;;;;;;;;21.39;30.83;98342.66;5036454;28;1975;-73
2023/05/04 02:15:23;;;;;;;;;;;;;;;21.61;30.44;98318.34;5056350;28;1013;-73
2023/05/04 02:17:48;;;;;;;;;;;;;;;21.41;31.02;98315.53;5039618;28;1146;-74
2023/05/04 02:20:14;;;;;;;;;;;;;;;21.70;30.53;98312.88;5057399;28;919;-74
2023/05/04 02:22:44;;;;;;;;;;;;;;;21.62;30.62;98313.50;5043540;28;1138;-74
2023/05/04 02:25:10;;;;;;;;;;;;;;;21.65;30.61;98299.22;5042733;28;1129;-73
2023/05/04 02:27:35;;;;;;;;;;;;;;;21.62;30.62;98322.78;5042700;28;1116;-73
2023/05/04 02:30:01;;;;;;;;;;;;;;;21.59;30.74;98317.97;5042590;28;1198;-74
2023/05/04 02:32:29;;;;;;;;;;;;;;;21.47;31.00;98293.16;5042815;28;1968;-74
2023/05/04 02:34:55;;;;;;;;;;;;;;;22.04;30.97;98314.56;5042974;28;960;-73
2023/05/04 02:37:21;;;;;;;;;;;;;;;22.52;30.21;98321.50;5038967;28;1182;-74
2023/05/04 02:39:46;;;;;;;;;;;;;;;22.01;30.44;98315.44;5022494;28;1070;-73
2023/05/04 02:42:12;;;;;;;;;;;;;;;21.78;30.89;98348.31;5022684;28;1107;-74
2023/05/04 02:44:38;;;;;;;;;;;;;;;21.53;31.04;98322.56;5039019;28;964;-73
2023/05/04 02:47:04;;;;;;;;;;;;;;;21.59;30.90;98355.59;5051473;28;1115;-73
2023/05/04 02:49:30;;;;;;;;;;;;;;;21.62;30.60;98344.63;5059283;28;1075;-73
2023/05/04 02:51:55;;;;;;;;;;;;;;;21.27;31.45;98361.88;5059977;28;1117;-73
2023/05/04 02:54:21;;;;;;;;;;;;;;;21.45;31.20;98366.41;5076670;28;1919;-73
2023/05/04 02:56:46;;;;;;;;;;;;;;;21.39;31.30;98370.97;5059857;28;979;-73
2023/05/04 02:59:12;;;;;;;;;;;;;;;21.40;31.18;98381.06;5076892;28;1235;-73
2023/05/04 03:01:38;;;;;;;;;;;;;;;21.79;30.94;98386.72;5038567;28;1378;-73
2023/05/04 03:04:03;;;;;;;;;;;;;;;22.29;30.59;98377.16;5005740;28;1138;-74
2023/05/04 03:06:29;;;;;;;;;;;;;;;22.40;30.29;98384.59;5005461;28;1400;-73
2023/05/04 03:08:55;;;;;;;;;;;;;;;21.46;31.45;98387.84;5038764;28;976;-73
2023/05/04 03:11:21;;;;;;;;;;;;;;;21.55;31.23;98374.69;5054855;28;1183;-73
2023/05/04 03:13:46;;;;;;;;;;;;;;;21.58;31.05;98375.84;5054893;28;1905;-73
2023/05/04 03:16:12;;;;;;;;;;;;;;;21.55;31.03;98385.22;5005374;28;1209;-73
2023/05/04 03:18:37;;;;;;;;;;;;;;;21.60;30.80;98393.19;5038529;28;1189;-73
2023/05/04 03:21:04;;;;;;;;;;;;;;;21.64;30.86;98410.91;5038194;28;1224;-74
2023/05/04 03:23:30;;;;;;;;;;;;;;;21.44;31.05;98418.59;5021765;28;1411;-74
2023/05/04 03:25:55;;;;;;;;;;;;;;;21.64;30.68;98422.25;5022061;28;1130;-74
2023/05/04 03:28:21;;;;;;;;;;;;;;;21.26;31.31;98424.56;5021530;28;1158;-75
2023/05/04 03:30:46;;;;;;;;;;;;;;;21.28;31.25;98422.91;5005355;28;1203;-73
2023/05/04 03:33:13;;;;;;;;;;;;;;;21.23;31.24;98422.59;5064850;28;1910;-73
2023/05/04 03:35:38;;;;;;;;;;;;;;;21.56;30.59;98426.47;5077489;28;1257;-73
2023/05/04 03:38:06;;;;;;;;;;;;;;;21.72;31.05;98426.53;5077472;28;1293;-73
2023/05/04 03:40:32;;;;;;;;;;;;;;;22.29;30.36;98427.38;5060901;28;1276;-74
2023/05/04 03:42:59;;;;;;;;;;;;;;;22.54;29.97;98435.31;5077731;28;1031;-73
2023/05/04 03:45:27;;;;;;;;;;;;;;;21.98;30.68;98412.66;5061073;28;1142;-74
2023/05/04 03:47:53;;;;;;;;;;;;;;;21.88;30.70;98427.84;5094009;28;1008;-73
2023/05/04 03:50:20;;;;;;;;;;;;;;;21.58;30.68;98419.13;5077143;28;1291;-73
2023/05/04 03:52:47;;;;;;;;;;;;;;;21.41;30.86;98413.81;5061034;28;1906;-73
2023/05/04 03:55:13;;;;;;;;;;;;;;;21.72;30.54;98418.03;5060557;28;1112;-73
2023/05/04 03:57:38;;;;;;;;;;;;;;;21.29;31.30;98435.81;5057446;28;1686;-73
2023/05/04 04:00:05;;;;;;;;;;;;;;;21.27;31.31;98446.78;5057422;28;948;-74
2023/05/04 04:02:40;;;;;;;;;;;;;;;21.42;31.09;98449.38;5073689;28;1153;-75
2023/05/04 04:05:06;;;;;;;;;;;;;;;21.43;31.37;98456.63;5073710;28;1236;-75
2023/05/04 04:07:33;;;;;;;;;;;;;;;21.63;30.90;98463.13;5033448;28;1163;-75
2023/05/04 04:09:59;;;;;;;;;;;;;;;21.45;31.21;98477.63;5017043;28;1566;-75
2023/05/04 04:12:25;;;;;;;;;;;;;;;21.60;30.57;98475.31;5033679;28;1988;-75
2023/05/04 04:14:53;;;;;;;;;;;;;;;21.39;31.03;98481.38;5017456;28;992;-75
2023/05/04 04:17:19;;;;;;;;;;;;;;;22.10;30.56;98477.16;5017547;28;987;-75
2023/05/04 04:19:44;;;;;;;;;;;;;;;22.45;30.01;98471.97;5016848;28;1182;-75
2023/05/04 04:22:10;;;;;;;;;;;;;;;22.28;30.21;98471.94;5000476;28;1000;-75
2023/05/04 04:24:35;;;;;;;;;;;;;;;21.92;30.57;98463.38;5000575;28;1356;-75
2023/05/04 04:27:01;;;;;;;;;;;;;;;21.61;30.84;98474.09;5000457;28;1130;-75
2023/05/04 04:29:26;;;;;;;;;;;;;;;21.43;31.04;98473.63;5016851;28;958;-75
2023/05/04 04:31:52;;;;;;;;;;;;;;;21.40;30.90;98451.84;5017046;28;953;-76
2023/05/04 04:34:17;;;;;;;;;;;;;;;21.29;31.36;98447.13;5033048;28;1906;-75
2023/05/04 04:36:43;;;;;;;;;;;;;;;21.32;31.47;98457.63;5016788;28;896;-75
2023/05/04 04:39:09;;;;;;;;;;;;;;;21.58;30.70;98447.44;5042963;28;954;-75
2023/05/04 04:41:35;;;;;;;;;;;;;;;21.59;30.71;98454.69;5074343;28;1115;-75
2023/05/04 04:44:01;;;;;;;;;;;;;;;22.20;30.66;98424.34;5057717;28;909;-75
2023/05/04 04:46:26;;;;;;;;;;;;;;;22.59;29.70;98418.56;5074503;28;868;-75
2023/05/04 04:48:54;;;;;;;;;;;;;;;22.17;30.06;98419.53;5075404;28;977;-75
2023/05/04 04:51:20;;;;;;;;;;;;;;;21.61;30.94;98434.47;5076255;28;955;-74
2023/05/04 04:53:45;;;;;;;;;;;;;;;21.61;30.74;98473.31;5074072;28;1886;-75
2023/05/04 04:56:11;;;;;;;;;;;;;;;21.58;30.85;98474.97;5057831;28;1196;-75
2023/05/04 04:58:36;;;;;;;;;;;;;;;21.54;31.04;98479.88;5074422;28;867;-75
2023/05/04 05:01:02;;;;;;;;;;;;;;;21.36;31.35;98473.75;5058196;28;957;-75
2023/05/04 05:03:27;;;;;;;;;;;;;;;21.43;31.10;98479.28;5074318;28;1134;-75
2023/05/04 05:05:54;;;;;;;;;;;;;;;21.55;30.90;98476.63;5075847;28;865;-75
2023/05/04 05:08:20;;;;;;;;;;;;;;;21.54;30.75;98468.56;5057590;28;1253;-75
2023/05/04 05:10:45;;;;;;;;;;;;;;;21.43;31.01;98456.63;5074020;28;1604;-75
2023/05/04 05:13:11;;;;;;;;;;;;;;;21.45;30.70;98468.31;5075084;28;1905;-75
2023/05/04 05:15:36;;;;;;;;;;;;;;;21.56;30.48;98449.91;5075204;28;1475;-75
2023/05/04 05:18:02;;;;;;;;;;;;;;;21.50;30.63;98448.81;5073869;28;1630;-75
2023/05/04 05:20:27;;;;;;;;;;;;;;;21.58;30.52;98432.47;5099357;28;1559;-75
2023/05/04 05:22:53;;;;;;;;;;;;;;;21.98;30.32;98424.78;5073886;28;1593;-76
2023/05/04 05:25:18;;;;;;;;;;;;;;;22.29;30.25;98428.19;5074215;28;1120;-75
2023/05/04 05:27:44;;;;;;;;;;;;;;;22.78;29.31;98424.59;5075172;28;897;-75
2023/05/04 05:30:10;;;;;;;;;;;;;;;22.43;29.42;98403.56;5108061;28;935;-75
2023/05/04 05:32:36;;;;;;;;;;;;;;;22.07;29.77;98399.50;5075831;28;1897;-76
2023/05/04 05:35:01;;;;;;;;;;;;;;;21.82;30.27;98394.38;5088272;28;1503;-75
2023/05/04 05:37:27;;;;;;;;;;;;;;;21.80;29.77;98388.31;5076909;28;1592;-76
2023/05/04 05:39:53;;;;;;;;;;;;;;;21.64;30.05;98381.81;5102030;28;1628;-75
2023/05/04 05:42:19;;;;;;;;;;;;;;;21.71;30.25;98388.13;5077989;28;1483;-76
2023/05/04 05:44:44;;;;;;;;;;;;;;;21.68;30.17;98388.19;5078571;28;1447;-75
2023/05/04 05:47:10;;;;;;;;;;;;;;;21.45;30.91;98386.22;5078437;28;1514;-75
2023/05/04 05:49:35;;;;;;;;;;;;;;;21.53;30.54;98387.69;5091412;28;1577;-75
2023/05/04 05:52:01;;;;;;;;;;;;;;;21.41;31.08;98397.63;5057857;28;1067;-75
2023/05/04 05:54:28;;;;;;;;;;;;;;;21.48;30.83;98403.16;5058209;28;1909;-75
2023/05/04 05:56:53;;;;;;;;;;;;;;;21.44;30.93;98401.63;5090893;28;983;-75
2023/05/04 05:59:19;;;;;;;;;;;;;;;21.46;31.24;98410.50;5090711;28;919;-76
2023/05/04 06:01:44;;;;;;;;;;;;;;;21.46;31.09;98404.81;5058508;28;1068;-75
2023/05/04 06:04:10;;;;;;;;;;;;;;;21.33;31.32;98405.44;5073539;28;1146;-75
2023/05/04 06:06:35;;;;;;;;;;;;;;;21.76;30.57;98401.78;5058137;28;941;-75
2023/05/04 06:09:01;;;;;;;;;;;;;;;22.22;30.76;98411.31;5056903;28;986;-75
2023/05/04 06:11:26;;;;;;;;;;;;;;;22.34;30.50;98402.16;5073609;28;1121;-75
2023/05/04 06:13:52;;;;;;;;;;;;;;;22.26;30.44;98409.19;5090173;28;1913;-75
2023/05/04 06:16:18;;;;;;;;;;;;;;;21.98;30.47;98387.16;5068196;28;1481;-75
2023/05/04 06:18:43;;;;;;;;;;;;;;;21.84;30.23;98374.88;5076710;28;1511;-75
2023/05/04 06:21:09;;;;;;;;;;;;;;;21.71;30.51;98373.16;5060159;28;1564;-75
2023/05/04 06:23:35;;;;;;;;;;;;;;;21.54;30.80;98367.41;5076464;28;1590;-75
2023/05/04 06:26:01;;;;;;;;;;;;;;;21.59;30.60;98374.63;5059750;28;1551;-76
2023/05/04 06:28:26;;;;;;;;;;;;;;;21.64;30.42;98357.09;5076581;28;1480;-75
2023/05/04 06:30:51;;;;;;;;;;;;;;;21.57;30.71;98354.44;5058268;28;1469;-76
2023/05/04 06:33:17;;;;;;;;;;;;;;;21.27;31.44;98342.06;5076472;28;1902;-76
2023/05/04 06:35:44;;;;;;;;;;;;;;;21.52;31.20;98352.13;5076631;28;1507;-76
2023/05/04 06:38:09;;;;;;;;;;;;;;;21.51;30.88;98339.19;5077257;28;1441;-76
2023/05/04 06:40:35;;;;;;;;;;;;;;;21.61;30.74;98352.34;5110309;28;930;-75
2023/05/04 06:43:00;;;;;;;;;;;;;;;21.71;30.55;98354.16;5075301;28;1194;-75
2023/05/04 06:45:26;;;;;;;;;;;;;;;21.49;30.78;98352.97;5058749;28;954;-75
2023/05/04 06:47:51;;;;;;;;;;;;;;;21.18;31.32;98304.25;5075673;28;1015;-76
2023/05/04 06:50:17;;;;;;;;;;;;;;;21.39;30.99;98342.66;5074983;28;963;-76
2023/05/04 06:52:43;;;;;;;;;;;;;;;21.50;30.96;98337.59;5035054;28;1906;-76
2023/05/04 06:55:08;;;;;;;;;;;;;;;21.92;31.16;98335.09;5051836;28;1113;-76
2023/05/04 06:57:34;;;;;;;;;;;;;;;22.06;31.16;98340.41;5034725;28;971;-75
2023/05/04 06:59:59;;;;;;;;;;;;;;;22.37;30.60;98343.75;5051597;28;1371;-76
2023/05/04 07:02:25;;;;;;;;;;;;;;;21.92;30.97;98340.75;5035114;28;1386;-76
2023/05/04 07:04:51;;;;;;;;;;;;;;;21.71;31.07;98361.81;5051533;28;1066;-75
2023/05/04 07:07:17;;;;;;;;;;;;;;;21.74;30.78;98352.47;5034867;28;1063;-76
2023/05/04 07:09:43;;;;;;;;;;;;;;;21.61;31.09;98358.00;5034796;28;1007;-77
2023/05/04 07:12:08;;;;;;;;;;;;;;;21.41;31.56;98358.00;5051612;28;1111;-75
2023/05/04 07:14:34;;;;;;;;;;;;;;;21.37;31.67;98357.28;5049208;28;1997;-75
2023/05/04 07:16:59;;;;;;;;;;;;;;;21.41;31.40;98371.34;5071520;28;1029;-76
2023/05/04 07:19:25;;;;;;;;;;;;;;;21.41;31.56;98379.84;5071015;28;1266;-76
2023/05/04 07:21:51;;;;;;;;;;;;;;;21.44;31.35;98378.97;5071218;28;978;-76
2023/05/04 07:24:16;;;;;;;;;;;;;;;21.60;31.24;98381.88;5071306;28;950;-75
2023/05/04 07:26:42;;;;;;;;;;;;;;;21.55;31.02;98373.88;5071342;28;974;-75
2023/05/04 07:29:08;;;;;;;;;;;;;;;21.39;31.39;98365.31;5055975;28;947;-75
2023/05/04 07:31:34;;;;;;;;;;;;;;;21.38;31.18;98341.06;5058129;28;1042;-75
2023/05/04 07:34:00;;;;;;;;;;;;;;;21.85;31.12;98333.97;5057775;28;1914;-75
2023/05/04 07:36:26;;;;;;;;;;;;;;;22.55;30.31;98343.31;5074288;28;957;-75
2023/05/04 07:38:52;;;;;;;;;;;;;;;22.59;30.24;98333.50;5074239;28;965;-76
2023/05/04 07:41:17;;;;;;;;;;;;;;;22.02;30.90;98328.34;5074198;28;919;-75
2023/05/04 07:43:43;;;;;;;;;;;;;;;21.65;31.48;98321.09;5074268;28;960;-75
2023/05/04 07:46:08;;;;;;;;;;;;;;;21.41;31.91;98311.91;5074483;28;984;-75
2023/05/04 07:48:34;;;;;;;;;;;;;;;21.28;31.64;98315.34;5076346;28;863;-76
2023/05/04 07:51:00;;;;;;;;;;;;;;;21.47;31.41;98313.00;5076129;28;1053;-75
2023/05/04 07:53:26;;;;;;;;;;;;;;;21.47;31.35;98304.50;5108697;28;1910;-75
2023/05/04 07:55:53;;;;;;;;;;;;;;;21.50;31.47;98315.75;5075880;28;929;-75
2023/05/04 07:58:18;;;;;;;;;;;;;;;21.43;31.56;98321.56;5075883;28;990;-75
2023/05/04 08:00:44;;;;;;;;;;;;;;;21.49;31.53;98307.69;5076514;28;1013;-75
2023/05/04 08:03:09;;;;;;;;;;;;;;;21.47;31.60;98310.16;5076047;28;956;-75
2023/05/04 08:05:35;;;;;;;;;;;;;;;21.13;31.90;98316.06;5076087;28;943;-75
2023/05/04 08:08:00;;;;;;;;;;;;;;;21.41;31.30;98311.91;5076039;28;918;-75
2023/05/04 08:10:27;;;;;;;;;;;;;;;21.62;31.02;98300.13;5075880;28;954;-76
2023/05/04 08:12:53;;;;;;;;;;;;;;;22.16;31.07;98307.41;5108062;28;1894;-75
2023/05/04 08:15:20;;;;;;;;;;;;;;;22.54;30.78;98302.03;5092075;28;1025;-75
2023/05/04 08:17:46;;;;;;;;;;;;;;;22.53;30.60;98306.09;5076454;28;923;-75
2023/05/04 08:20:11;;;;;;;;;;;;;;;21.73;31.63;98294.22;5076277;28;906;-76
2023/05/04 08:22:37;;;;;;;;;;;;;;;21.83;31.19;98304.50;5108838;28;906;-74
2023/05/04 08:25:03;;;;;;;;;;;;;;;21.81;30.86;98296.47;5075017;28;888;-74
2023/05/04 08:27:29;;;;;;;;;;;;;;;21.72;31.12;98293.44;5108811;28;935;-74
2023/05/04 08:29:56;;;;;;;;;;;;;;;21.52;31.61;98301.16;5075870;28;915;-74
2023/05/04 08:32:21;;;;;;;;;;;;;;;21.60;31.18;98296.91;5108551;28;966;-74
2023/05/04 08:34:46;;;;;;;;;;;;;;;21.58;31.53;98288.88;5091607;28;1918;-75
2023/05/04 08:37:12;;;;;;;;;;;;;;;21.45;31.79;98295.63;5076281;28;1517;-75
2023/05/04 08:39:37;;;;;;;;;;;;;;;21.55;31.80;98295.41;5074395;28;1606;-74
2023/05/04 08:42:03;;;;;;;;;;;;;;;21.35;31.93;98296.66;5075811;28;1548;-74
2023/05/04 08:44:30;;;;;;;;;;;;;;;21.40;31.65;98291.31;5056971;28;1251;-75
2023/05/04 08:46:55;;;;;;;;;;;;;;;21.28;32.10;98292.72;5057324;28;1316;-75
2023/05/04 08:49:21;;;;;;;;;;;;;;;21.57;31.45;98292.16;5056909;28;1321;-74
2023/05/04 08:51:48;;;;;;;;;;;;;;;21.46;31.79;98285.94;5033627;28;1310;-74
2023/05/04 08:54:13;;;;;;;;;;;;;;;21.48;31.42;98287.06;4997297;28;1997;-75
2023/05/04 08:56:39;;;;;;;;;;;;;;;21.53;31.35;98277.25;4981580;28;959;-75
2023/05/04 08:59:05;;;;;;;;;;;;;;;21.74;30.99;98276.00;4997655;28;1054;-74
2023/05/04 09:01:31;;;;;;;;;;;;;;;21.67;31.34;98276.94;5013665;28;912;-74
2023/05/04 09:03:56;;;;;;;;;;;;;;;21.66;31.06;98281.03;4997251;28;985;-74
2023/05/04 09:06:22;;;;;;;;;;;;;;;21.61;31.02;98286.41;4998863;28;943;-75
2023/05/04 09:08:48;;;;;;;;;;;;;;;21.68;31.05;98289.06;4981653;28;1120;-74
2023/05/04 09:11:13;;;;;;;;;;;;;;;21.67;30.86;98274.13;4997560;28;1070;-74
2023/05/04 09:13:39;;;;;;;;;;;;;;;21.53;31.28;98268.78;4965293;28;1980;-76
2023/05/04 09:16:04;;;;;;;;;;;;;;;21.33;31.67;98272.41;4996540;28;962;-75
2023/05/04 09:18:39;;;;;;;;;;;;;;;22.16;31.34;98264.91;4984550;28;986;-75
2023/05/04 09:21:05;;;;;;;;;;;;;;;22.68;30.54;98273.28;5001378;28;1019;-75
2023/05/04 09:23:31;;;;;;;;;;;;;;;22.64;30.94;98272.59;5013015;28;1045;-75
2023/05/04 09:25:57;;;;;;;;;;;;;;;22.23;31.45;98268.38;5016800;28;1267;-75
2023/05/04 09:28:35;;;;;;;;;;;;;;;21.76;31.99;98271.50;5020671;28;946;-75
2023/05/04 09:31:01;;;;;;;;;;;;;;;21.60;32.02;98265.75;5004303;28;1156;-77
2023/05/04 09:33:27;;;;;;;;;;;;;;;21.89;31.46;98256.63;5020500;28;1980;-76
2023/05/04 09:35:52;;;;;;;;;;;;;;;21.92;31.56;98253.72;5004518;28;1124;-77
2023/05/04 09:38:25;;;;;;;;;;;;;;;21.62;31.62;98254.81;5000296;28;1033;-75
2023/05/04 09:40:51;;;;;;;;;;;;;;;21.68;31.61;98261.56;5019021;28;1026;-76
2023/05/04 09:43:17;;;;;;;;;;;;;;;21.61;31.84;98253.22;5003612;28;956;-76
2023/05/04 09:45:46;;;;;;;;;;;;;;;21.66;31.71;98247.03;5020676;28;1138;-75
2023/05/04 09:48:24;;;;;;;;;;;;;;;21.57;31.67;98247.63;5020359;28;1037;-76
2023/05/04 09:50:50;;;;;;;;;;;;;;;21.66;31.22;98255.53;5004277;28;1504;-76
2023/05/04 09:53:15;;;;;;;;;;;;;;;21.51;31.46;98248.59;5003507;28;1914;-76
2023/05/04 09:55:41;;;;;;;;;;;;;;;21.76;31.11;98243.16;5036288;28;994;-75
2023/05/04 09:58:07;;;;;;;;;;;;;;;21.72;31.24;98245.28;5020232;28;998;-76
2023/05/04 10:00:32;;;;;;;;;;;;;;;21.44;31.57;98248.75;5020158;28;953;-76
2023/05/04 10:02:58;;;;;;;;;;;;;;;21.44;31.56;98243.09;5034148;28;973;-76
2023/05/04 10:05:24;;;;;;;;;;;;;;;21.23;31.91;98233.00;5004070;28;1216;-76
2023/05/04 10:07:57;;;;;;;;;;;;;;;21.39;31.61;98246.44;5021140;28;1182;-75
2023/05/04 10:10:24;;;;;;;;;;;;;;;21.57;31.10;98235.50;5019653;28;1022;-76
2023/05/04 10:12:49;;;;;;;;;;;;;;;21.53;31.48;98251.78;5003771;28;1981;-75
2023/05/04 10:15:15;;;;;;;;;;;;;;;22.15;30.92;98252.78;5035299;28;1959;-74
2023/05/04 10:17:59;;;;;;;;;;;;;;;22.71;30.71;98254.59;5035349;28;987;-76
2023/05/04 10:20:24;;;;;;;;;;;;;;;22.22;31.74;98235.56;5035939;28;937;-76
2023/05/04 10:23:06;;;;;;;;;;;;;;;22.03;31.47;98239.28;5035782;28;993;-76
2023/05/04 10:25:41;;;;;;;;;;;;;;;21.85;31.33;98240.50;5036906;28;943;-75
2023/05/04 10:28:09;;;;;;;;;;;;;;;21.56;31.43;98239.59;5076127;28;888;-76
2023/05/04 10:30:35;;;;;;;;;;;;;;;21.60;31.39;98240.28;5076618;28;989;-76
2023/05/04 10:33:01;;;;;;;;;;;;;;;21.41;31.50;98232.66;5075904;28;1902;-75
2023/05/04 10:35:27;;;;;;;;;;;;;;;21.68;30.80;98230.41;5092519;28;1249;-75
2023/05/04 10:37:53;;;;;;;;;;;;;;;21.41;31.34;98227.00;5075741;28;993;-76
2023/05/04 10:40:34;;;;;;;;;;;;;;;21.65;30.73;98230.47;5075715;28;1238;-75
2023/05/04 10:43:00;;;;;;;;;;;;;;;21.43;30.95;98235.81;5075656;28;1260;-76
2023/05/04 10:45:38;;;;;;;;;;;;;;;21.35;31.05;98235.19;5072366;28;1442;-76
2023/05/04 10:48:04;;;;;;;;;;;;;;;21.61;30.71;98230.56;5089843;28;1028;-76
2023/05/04 10:50:40;;;;;;;;;;;;;;;22.00;30.91;98231.66;5090004;28;914;-76
2023/05/04 10:53:05;;;;;;;;;;;;;;;22.29;30.66;98238.25;5090356;28;1899;-75
2023/05/04 10:55:37;;;;;;;;;;;;;;;22.20;30.69;98232.41;5057779;28;1050;-75
2023/05/04 10:58:02;;;;;;;;;;;;;;;21.85;31.22;98222.72;5092189;28;1121;-75
2023/05/04 11:00:35;;;;;;;;;;;;;;;21.69;30.99;98229.16;5075209;28;974;-75
2023/05/04 11:03:03;;;;;;;;;;;;;;;21.63;31.02;98230.91;5058513;28;1026;-75
2023/05/04 11:05:39;;;;;;;;;;;;;;;21.51;31.09;98231.63;5075063;28;1029;-75
2023/05/04 11:08:23;;;;;;;;;;;;;;;21.27;31.27;98231.69;5058275;28;906;-76
2023/05/04 11:11:01;;;;;;;;;;;;;;;21.35;31.18;98234.38;5074629;28;1199;-75
2023/05/04 11:13:32;;;;;;;;;;;;;;;21.35;31.09;98234.38;5075030;28;1898;-74
2023/05/04 11:15:58;;;;;;;;;;;;;;;21.17;31.48;98235.53;5074892;28;1285;-74
2023/05/04 11:18:30;;;;;;;;;;;;;;;21.03;31.41;98239.44;5058601;28;984;-73
2023/05/04 11:20:56;;;;;;;;;;;;;;;21.15;31.39;98249.34;5058222;28;1111;-74
2023/05/04 11:23:22;;;;;;;;;;;;;;;21.26;31.16;98240.63;5058277;28;1030;-74
2023/05/04 11:25:47;;;;;;;;;;;;;;;21.65;31.10;98241.78;5098253;28;1367;-75
2023/05/04 11:28:13;;;;;;;;;;;;;;;21.97;30.63;98233.34;5098289;28;1170;-74
2023/05/04 11:30:40;;;;;;;;;;;;;;;22.01;30.14;98228.38;5097249;28;1027;-74
2023/05/04 11:33:12;;;;;;;;;;;;;;;21.91;30.17;98231.47;5081672;28;1963;-74
2023/05/04 11:35:38;;;;;;;;;;;;;;;21.63;30.59;98211.09;5098434;28;996;-74
2023/05/04 11:38:03;;;;;;;;;;;;;;;21.32;30.82;98227.56;5081500;28;1050;-74
2023/05/04 11:40:28;;;;;;;;;;;;;;;21.29;30.95;98225.56;5115067;28;982;-75
2023/05/04 11:42:54;;;;;;;;;;;;;;;21.26;30.90;98226.47;5098195;28;975;-74
2023/05/04 11:45:21;;;;;;;;;;;;;;;21.25;30.72;98222.84;5097672;28;1070;-74
2023/05/04 11:47:46;;;;;;;;;;;;;;;21.24;30.67;98221.25;5097949;28;993;-74
2023/05/04 11:50:13;;;;;;;;;;;;;;;21.18;31.04;98225.81;5080975;28;1273;-74
2023/05/04 11:52:39;;;;;;;;;;;;;;;21.19;30.91;98218.94;5063879;28;1898;-75
2023/05/04 11:55:08;;;;;;;;;;;;;;;21.31;30.37;98215.47;5097820;28;1003;-75
2023/05/04 11:57:36;;;;;;;;;;;;;;;21.18;30.44;98220.16;5061801;28;972;-74
2023/05/04 12:00:02;;;;;;;;;;;;;;;21.75;30.15;98218.09;5071258;28;994;-74
2023/05/04 12:02:30;;;;;;;;;;;;;;;21.99;29.92;98216.69;5056136;28;975;-75
2023/05/04 12:04:55;;;;;;;;;;;;;;;21.75;30.22;98235.88;5071984;28;1488;-75
2023/05/04 12:07:21;;;;;;;;;;;;;;;21.78;29.95;98218.03;5094226;28;932;-74
2023/05/04 12:09:46;;;;;;;;;;;;;;;21.11;30.97;98209.00;5060686;28;1230;-73
2023/05/04 12:12:17;;;;;;;;;;;;;;;21.02;31.14;98214.44;5060472;28;1126;-74
2023/05/04 12:14:52;;;;;;;;;;;;;;;21.16;30.51;98216.19;5037091;28;1914;-75
2023/05/04 12:17:19;;;;;;;;;;;;;;;21.29;30.48;98203.72;5037133;28;1088;-75
2023/05/04 12:19:52;;;;;;;;;;;;;;;21.18;30.36;98203.16;5037539;28;932;-75
2023/05/04 12:22:24;;;;;;;;;;;;;;;21.25;30.16;98214.34;5037492;28;1009;-74
2023/05/04 12:24:49;;;;;;;;;;;;;;;21.91;29.55;98203.94;5020682;28;1035;-75
2023/05/04 12:27:15;;;;;;;;;;;;;;;22.18;28.91;98215.06;5037123;28;955;-74
2023/05/04 12:29:40;;;;;;;;;;;;;;;21.82;29.70;98201.75;5037121;28;1021;-76
2023/05/04 12:32:06;;;;;;;;;;;;;;;21.44;29.93;98209.09;5020412;28;961;-75
2023/05/04 12:34:32;;;;;;;;;;;;;;;21.44;30.12;98204.25;5036882;28;1993;-75
2023/05/04 12:36:58;;;;;;;;;;;;;;;21.14;30.62;98205.31;5036856;28;1013;-74
2023/05/04 12:39:23;;;;;;;;;;;;;;;21.02;30.81;98206.75;4980243;28;987;-74
2023/05/04 12:41:49;;;;;;;;;;;;;;;21.33;29.89;98204.47;4996215;28;1163;-75
2023/05/04 12:44:15;;;;;;;;;;;;;;;21.42;30.14;98195.41;4982211;28;1006;-75
2023/05/04 12:46:41;;;;;;;;;;;;;;;21.99;29.53;98193.25;5016479;28;990;-74
2023/05/04 12:49:07;;;;;;;;;;;;;;;22.14;28.95;98177.50;5035044;28;1115;-74
2023/05/04 12:51:33;;;;;;;;;;;;;;;21.63;29.51;98182.78;5041203;28;993;-76
2023/05/04 12:53:58;;;;;;;;;;;;;;;21.53;29.77;98172.50;5041312;28;1922;-75
2023/05/04 12:56:24;;;;;;;;;;;;;;;21.61;29.35;98178.81;5040755;28;1009;-74